createdAt,value
2022-08-11T00:02:00.641Z,0.20
2022-08-11T00:04:28.381Z,0.20
2022-08-11T00:06:56.119Z,0.20
2022-08-11T00:09:32.607Z,0.22
2022-08-11T00:12:13.354Z,0.10
2022-08-11T00:14:41.699Z,0.20
2022-08-11T00:17:10.454Z,0.20
2022-08-11T00:20:12.207Z,0.20
2022-08-11T00:22:27.050Z,0.20
2022-08-11T00:25:00.151Z,0.20
2022-08-11T00:27:33.953Z,0.10
2022-08-11T00:30:01.635Z,0.20
2022-08-11T00:32:29.855Z,0.20
2022-08-11T00:35:55.991Z,0.25
2022-08-11T00:37:49.266Z,0.28
2022-08-11T00:40:23.639Z,0.20
2022-08-11T00:42:56.387Z,0.20
2022-08-11T00:45:25.743Z,0.20
2022-08-11T00:48:00.152Z,0.30
2022-08-11T00:50:30.445Z,0.20
2022-08-11T00:53:08.417Z,0.20
2022-08-11T00:55:56.171Z,0.20
2022-08-11T00:58:41.678Z,0.20
2022-08-11T01:01:18.203Z,0.20
2022-08-11T01:04:08.420Z,0.20
2022-08-11T01:06:50.808Z,0.20
2022-08-11T01:09:36.269Z,0.30
2022-08-11T01:12:15.825Z,0.10
2022-08-11T01:15:01.574Z,0.20
2022-08-11T01:17:44.019Z,0.10
2022-08-11T01:20:46.666Z,0.20
2022-08-11T01:23:22.444Z,0.20
2022-08-11T01:26:02.654Z,0.20
2022-08-11T01:28:51.299Z,0.20
2022-08-11T01:31:37.067Z,0.20
2022-08-11T01:34:25.499Z,0.30
2022-08-11T01:37:07.630Z,0.20
2022-08-11T01:39:53.672Z,0.20
2022-08-11T01:42:56.337Z,0.20
2022-08-11T01:45:28.739Z,0.20
2022-08-11T01:48:00.853Z,0.20
2022-08-11T01:50:54.674Z,0.30
2022-08-11T01:53:31.772Z,0.22
2022-08-11T01:56:06.475Z,0.20
2022-08-11T01:58:44.281Z,0.20
2022-08-11T02:01:17.320Z,0.20
2022-08-11T02:03:51.208Z,0.20
2022-08-11T02:06:41.751Z,0.20
2022-08-11T02:09:14.219Z,0.20
2022-08-11T02:11:45.155Z,0.20
2022-08-11T02:14:20.803Z,0.20
2022-08-11T02:16:52.744Z,0.20
2022-08-11T02:19:40.471Z,0.25
2022-08-11T02:22:28.498Z,0.20
2022-08-11T02:25:01.511Z,0.20
2022-08-11T02:27:37.603Z,0.20
2022-08-11T02:30:07.383Z,0.20
2022-08-11T02:32:55.383Z,0.22
2022-08-11T02:35:26.454Z,0.20
2022-08-11T02:37:59.309Z,0.22
2022-08-11T02:40:32.460Z,0.30
2022-08-11T02:43:12.553Z,0.20
2022-08-11T02:45:48.578Z,0.20
2022-08-11T02:48:39.541Z,0.30
2022-08-11T02:51:15.335Z,0.20
2022-08-11T02:53:58.172Z,0.28
2022-08-11T02:56:35.514Z,0.20
2022-08-11T02:59:25.009Z,0.20
2022-08-11T03:01:55.005Z,0.30
2022-08-11T03:04:37.548Z,0.20
2022-08-11T03:07:28.141Z,0.20
2022-08-11T03:09:59.947Z,0.20
2022-08-11T03:12:53.555Z,0.20
2022-08-11T03:15:41.945Z,0.30
2022-08-11T03:18:17.076Z,0.20
2022-08-11T03:20:47.639Z,0.28
2022-08-11T03:23:20.561Z,0.20
2022-08-11T03:25:52.151Z,0.20
2022-08-11T03:28:28.360Z,0.30
2022-08-11T03:31:02.958Z,0.20
2022-08-11T03:33:48.596Z,0.20
2022-08-11T03:36:25.502Z,0.30
2022-08-11T03:38:59.859Z,0.28
2022-08-11T03:41:50.458Z,0.20
2022-08-11T03:44:48.515Z,0.25
2022-08-11T03:47:34.306Z,0.30
2022-08-11T03:50:04.702Z,0.30
2022-08-11T03:52:39.726Z,0.30
2022-08-11T03:55:11.403Z,0.30
2022-08-11T03:58:05.783Z,0.20
2022-08-11T04:01:00.229Z,0.30
2022-08-11T04:03:51.639Z,0.30
2022-08-11T04:06:34.339Z,0.30
2022-08-11T04:09:19.928Z,0.20
2022-08-11T04:11:57.608Z,0.20
2022-08-11T04:15:07.895Z,0.22
2022-08-11T04:17:59.794Z,0.30
2022-08-11T04:20:35.822Z,0.20
2022-08-11T04:23:12.919Z,0.20
2022-08-11T04:26:20.869Z,0.20
2022-08-11T04:29:02.043Z,0.20
2022-08-11T04:31:52.041Z,0.20
2022-08-11T04:34:36.516Z,0.30
2022-08-11T04:37:30.079Z,0.30
2022-08-11T04:40:04.052Z,0.20
2022-08-11T04:43:18.900Z,0.20
2022-08-11T04:46:06.330Z,0.30
2022-08-11T04:49:13.221Z,0.20
2022-08-11T04:55:48.319Z,0.22
2022-08-11T04:58:39.455Z,0.20
2022-08-11T05:05:19.178Z,0.20
2022-08-11T05:08:11.679Z,0.30
2022-08-11T05:10:58.002Z,0.20
2022-08-11T05:13:45.673Z,0.10
2022-08-11T05:16:32.189Z,0.13
2022-08-11T05:19:17.495Z,0.20
2022-08-11T05:22:06.606Z,0.10
2022-08-11T05:24:55.922Z,0.20
2022-08-11T05:27:42.850Z,0.10
2022-08-11T05:30:30.681Z,0.10
2022-08-11T05:33:22.346Z,0.20
2022-08-11T05:36:00.874Z,0.20
2022-08-11T05:38:50.821Z,0.10
2022-08-11T05:41:37.941Z,0.20
2022-08-11T05:44:23.883Z,0.20
2022-08-11T05:47:09.399Z,0.20
2022-08-11T05:49:55.374Z,0.20
2022-08-11T05:52:44.110Z,0.20
2022-08-11T05:55:33.854Z,0.10
2022-08-11T05:58:02.420Z,0.20
2022-08-11T06:00:30.274Z,0.10
2022-08-11T06:03:00.845Z,0.20
2022-08-11T06:05:38.501Z,0.15
2022-08-11T06:08:13.235Z,0.17
2022-08-11T06:10:43.220Z,0.10
2022-08-11T06:13:11.381Z,0.10
2022-08-11T06:15:45.253Z,0.15
2022-08-11T06:18:13.721Z,0.10
2022-08-11T06:20:47.462Z,0.17
2022-08-11T06:23:17.965Z,0.10
2022-08-11T06:25:47.512Z,0.10
2022-08-11T06:28:20.600Z,0.10
2022-08-11T06:30:49.043Z,0.08
2022-08-11T06:33:17.991Z,0.10
2022-08-11T06:35:52.882Z,0.00
2022-08-11T06:38:27.703Z,0.10
2022-08-11T06:41:16.674Z,0.10
2022-08-11T06:43:55.496Z,0.10
2022-08-11T06:46:28.296Z,0.00
2022-08-11T06:48:56.701Z,0.00
2022-08-11T06:51:24.025Z,0.00
2022-08-11T06:54:04.327Z,0.00
2022-08-11T06:57:12.565Z,0.00
2022-08-11T06:59:59.950Z,0.00
2022-08-11T07:02:31.310Z,0.00
2022-08-11T07:05:01.996Z,0.00
2022-08-11T07:08:33.900Z,0.00
2022-08-11T07:11:20.281Z,0.00
2022-08-11T07:14:09.179Z,0.00
2022-08-11T07:16:40.527Z,0.00
2022-08-11T07:19:26.163Z,0.00
2022-08-11T07:22:11.559Z,0.00
2022-08-11T07:25:02.426Z,0.00
2022-08-11T07:27:51.637Z,0.00
2022-08-11T07:30:20.632Z,0.00
2022-08-11T07:32:50.803Z,0.00
2022-08-11T07:35:19.224Z,0.00
2022-08-11T07:37:49.156Z,0.00
2022-08-11T07:40:29.281Z,0.00
2022-08-11T07:42:57.844Z,0.00
2022-08-11T07:45:45.104Z,0.00
2022-08-11T07:48:31.095Z,0.00
2022-08-11T07:51:16.491Z,0.00
2022-08-11T07:53:58.731Z,0.00
2022-08-11T07:56:39.579Z,0.00
2022-08-11T08:00:00.601Z,0.00
2022-08-11T08:02:45.843Z,0.00
2022-08-11T08:05:31.143Z,0.00
2022-08-11T08:08:17.348Z,0.00
2022-08-11T08:11:03.205Z,0.00
2022-08-11T08:13:50.783Z,0.00
2022-08-11T08:16:36.080Z,0.00
2022-08-11T08:19:05.198Z,0.00
2022-08-11T08:21:32.837Z,0.00
2022-08-11T08:24:01.261Z,0.00
2022-08-11T08:26:48.291Z,0.00
2022-08-11T08:29:38.089Z,0.00
2022-08-11T08:32:05.961Z,0.00
2022-08-11T08:34:35.469Z,0.00
2022-08-11T08:37:03.129Z,0.00
2022-08-11T08:39:46.263Z,0.00
2022-08-11T08:42:14.630Z,0.00
2022-08-11T08:44:45.152Z,0.00
2022-08-11T08:47:14.966Z,0.00
2022-08-11T08:50:05.950Z,0.00
2022-08-11T08:52:39.439Z,0.00
2022-08-11T08:55:08.928Z,0.00
2022-08-11T08:57:39.021Z,0.00
2022-08-11T09:00:13.814Z,0.00
2022-08-11T09:02:43.046Z,0.00
2022-08-11T09:05:12.412Z,0.00
2022-08-11T09:07:41.113Z,0.00
2022-08-11T09:10:10.215Z,0.00
2022-08-11T09:12:39.740Z,0.00
2022-08-11T09:15:10.405Z,0.00
2022-08-11T09:17:40.024Z,0.00
2022-08-11T09:20:08.971Z,0.00
2022-08-11T09:23:24.298Z,0.05
2022-08-11T09:26:03.056Z,0.10
2022-08-11T09:28:31.173Z,0.10
2022-08-11T09:31:01.127Z,0.10
2022-08-11T09:33:29.385Z,0.10
2022-08-11T09:35:57.289Z,0.10
2022-08-11T09:38:49.500Z,0.10
2022-08-11T09:41:18.059Z,0.10
2022-08-11T09:44:11.035Z,0.10
2022-08-11T09:46:39.654Z,0.10
2022-08-11T09:49:07.295Z,0.10
2022-08-11T09:51:35.237Z,0.10
2022-08-11T09:54:06.536Z,0.10
2022-08-11T09:56:51.644Z,0.10
2022-08-11T09:59:20.555Z,0.17
2022-08-11T10:01:49.317Z,0.10
2022-08-11T10:04:17.759Z,0.10
2022-08-11T10:07:04.885Z,0.10
2022-08-11T10:09:38.181Z,0.10
2022-08-11T10:12:07.878Z,0.10
2022-08-11T10:14:53.746Z,0.10
2022-08-11T10:17:22.833Z,0.10
2022-08-11T10:20:04.508Z,0.10
2022-08-11T10:22:51.467Z,0.10
2022-08-11T10:25:38.286Z,0.10
2022-08-11T10:28:28.840Z,0.10
2022-08-11T10:31:13.906Z,0.10
2022-08-11T10:33:59.804Z,0.10
2022-08-11T10:36:31.129Z,0.10
2022-08-11T10:38:59.228Z,0.10
2022-08-11T10:42:03.469Z,0.10
2022-08-11T10:44:37.215Z,0.10
2022-08-11T10:47:23.185Z,0.10
2022-08-11T10:50:12.414Z,0.10
2022-08-11T10:52:57.834Z,0.10
2022-08-11T10:55:43.495Z,0.10
2022-08-11T10:58:30.661Z,0.10
2022-08-11T11:00:59.007Z,0.10
2022-08-11T11:03:28.005Z,0.10
2022-08-11T11:06:12.960Z,0.10
2022-08-11T11:08:58.805Z,0.10
2022-08-11T11:11:45.527Z,0.10
2022-08-11T11:14:34.877Z,0.10
2022-08-11T11:17:20.853Z,0.10
2022-08-11T11:19:50.869Z,0.10
2022-08-11T11:22:36.069Z,0.10
2022-08-11T11:25:09.313Z,0.10
2022-08-11T11:27:46.623Z,0.10
2022-08-11T11:30:16.138Z,0.10
2022-08-11T11:32:50.023Z,0.10
2022-08-11T11:35:26.675Z,0.10
2022-08-11T11:38:01.901Z,0.10
2022-08-11T11:40:32.597Z,0.10
2022-08-11T11:43:00.665Z,0.10
2022-08-11T11:45:29.897Z,0.10
2022-08-11T11:47:59.551Z,0.10
2022-08-11T11:50:29.326Z,0.10
2022-08-11T11:53:07.813Z,0.10
2022-08-11T11:55:36.106Z,0.10
2022-08-11T11:58:22.400Z,0.10
2022-08-11T12:01:09.699Z,0.10
2022-08-11T12:03:38.417Z,0.10
2022-08-11T12:06:07.770Z,0.10
2022-08-11T12:08:36.227Z,0.10
2022-08-11T12:11:22.386Z,0.10
2022-08-11T12:13:52.622Z,0.10
2022-08-11T12:16:34.771Z,0.10
2022-08-11T12:19:05.336Z,0.10
2022-08-11T12:21:33.215Z,0.10
2022-08-11T12:24:19.207Z,0.10
2022-08-11T12:27:17.067Z,0.10
2022-08-11T12:29:50.063Z,0.00
2022-08-11T12:32:24.240Z,0.10
2022-08-11T12:34:51.967Z,0.10
2022-08-11T12:37:23.525Z,0.10
2022-08-11T12:40:37.430Z,0.10
2022-08-11T12:43:21.970Z,0.10
2022-08-11T12:45:52.358Z,0.10
2022-08-11T12:49:00.881Z,0.10
2022-08-11T12:52:11.160Z,0.10
2022-08-11T12:54:41.289Z,0.10
2022-08-11T12:57:36.890Z,0.10
2022-08-11T13:00:23.986Z,0.00
2022-08-11T13:03:15.837Z,0.10
2022-08-11T13:05:45.453Z,0.03
2022-08-11T13:08:15.181Z,0.10
2022-08-11T13:11:01.012Z,0.00
2022-08-11T13:13:54.989Z,0.10
2022-08-11T13:16:16.865Z,0.00
2022-08-11T13:18:45.161Z,0.00
2022-08-11T13:21:20.603Z,0.10
2022-08-11T13:24:01.205Z,0.10
2022-08-11T13:26:46.861Z,0.00
2022-08-11T13:29:18.947Z,0.10
2022-08-11T13:31:46.900Z,0.00
2022-08-11T13:34:15.584Z,0.10
2022-08-11T13:36:45.842Z,0.10
2022-08-11T13:39:14.090Z,0.10
2022-08-11T13:41:45.043Z,0.10
2022-08-11T13:44:17.431Z,0.10
2022-08-11T13:46:47.348Z,0.10
2022-08-11T13:49:16.950Z,0.10
2022-08-11T13:51:46.203Z,0.10
2022-08-11T13:54:18.821Z,0.10
2022-08-11T13:56:47.641Z,0.10
2022-08-11T13:59:15.988Z,0.10
2022-08-11T14:02:19.166Z,0.10
2022-08-11T14:04:40.326Z,0.10
2022-08-11T14:07:10.612Z,0.10
2022-08-11T14:09:39.052Z,0.10
2022-08-11T14:12:27.380Z,0.10
2022-08-11T14:15:02.219Z,0.10
2022-08-11T14:17:43.741Z,0.00
2022-08-11T14:20:38.575Z,0.00
2022-08-11T14:23:06.478Z,0.10
2022-08-11T14:26:00.136Z,0.00
2022-08-11T14:28:33.894Z,0.10
2022-08-11T14:31:05.218Z,0.10
2022-08-11T14:34:00.139Z,0.10
2022-08-11T14:36:22.366Z,0.10
2022-08-11T14:38:53.419Z,0.10
2022-08-11T14:42:10.960Z,0.10
2022-08-11T14:44:44.173Z,0.10
2022-08-11T14:47:24.697Z,0.10
2022-08-11T14:49:57.960Z,0.10
2022-08-11T14:52:38.900Z,0.10
2022-08-11T14:55:26.447Z,0.10
2022-08-11T14:57:56.520Z,0.10
2022-08-11T15:00:24.877Z,0.10
2022-08-11T15:03:11.126Z,0.00
2022-08-11T15:05:57.294Z,0.00
2022-08-11T15:08:47.850Z,0.10
2022-08-11T15:11:35.537Z,0.03
2022-08-11T15:14:04.260Z,0.10
2022-08-11T15:16:50.091Z,0.00
2022-08-11T15:19:20.901Z,0.00
2022-08-11T15:22:06.134Z,0.00
2022-08-11T15:24:36.207Z,0.00
2022-08-11T15:27:24.498Z,0.10
2022-08-11T15:30:10.050Z,0.10
2022-08-11T15:33:15.424Z,0.10
2022-08-11T15:36:01.274Z,0.10
2022-08-11T15:38:31.376Z,0.10
2022-08-11T15:41:19.095Z,0.10
2022-08-11T15:44:07.992Z,0.10
2022-08-11T15:46:40.186Z,0.10
2022-08-11T15:49:10.302Z,0.10
2022-08-11T15:51:40.981Z,0.10
2022-08-11T15:54:09.660Z,0.10
2022-08-11T15:56:38.493Z,0.10
2022-08-11T15:59:42.109Z,0.10
2022-08-11T16:02:25.942Z,0.10
2022-08-11T16:04:55.047Z,0.10
2022-08-11T16:07:27.012Z,0.10
2022-08-11T16:10:00.534Z,0.00
2022-08-11T16:12:31.603Z,0.00
2022-08-11T16:15:20.499Z,0.10
2022-08-11T16:17:49.867Z,0.10
2022-08-11T16:20:20.462Z,0.10
2022-08-11T16:23:00.399Z,0.10
2022-08-11T16:27:03.663Z,0.10
2022-08-11T16:28:20.657Z,0.10
2022-08-11T16:30:50.024Z,0.10
2022-08-11T16:33:49.176Z,0.10
2022-08-11T16:36:25.292Z,0.10
2022-08-11T16:38:53.717Z,0.10
2022-08-11T16:41:42.418Z,0.10
2022-08-11T16:44:32.748Z,0.10
2022-08-11T16:47:07.017Z,0.10
2022-08-11T16:49:36.143Z,0.10
2022-08-11T16:52:05.396Z,0.10
2022-08-11T16:54:33.468Z,0.10
2022-08-11T16:57:23.826Z,0.10
2022-08-11T16:59:56.097Z,0.10
2022-08-11T17:02:47.184Z,0.10
2022-08-11T17:05:34.398Z,0.10
2022-08-11T17:08:24.760Z,0.20
2022-08-11T17:11:11.918Z,0.10
2022-08-11T17:13:42.178Z,0.10
2022-08-11T17:16:12.759Z,0.10
2022-08-11T17:18:55.560Z,0.10
2022-08-11T17:21:27.202Z,0.10
2022-08-11T17:23:55.425Z,0.10
2022-08-11T17:26:25.140Z,0.10
2022-08-11T17:28:56.292Z,0.10
2022-08-11T17:31:42.013Z,0.10
2022-08-11T17:34:28.554Z,0.10
2022-08-11T17:36:56.487Z,0.10
2022-08-11T17:39:25.212Z,0.10
2022-08-11T17:42:10.799Z,0.10
2022-08-11T17:44:56.990Z,0.10
2022-08-11T17:47:43.018Z,0.10
2022-08-11T17:50:18.104Z,0.10
2022-08-11T17:53:03.850Z,0.10
2022-08-11T17:55:52.229Z,0.20
2022-08-11T17:58:39.330Z,0.10
2022-08-11T18:01:09.501Z,0.10
2022-08-11T18:03:39.584Z,0.20
2022-08-11T18:06:12.738Z,0.10
2022-08-11T18:08:59.304Z,0.10
2022-08-11T18:12:10.096Z,0.20
2022-08-11T18:14:50.782Z,0.10
2022-08-11T18:17:35.950Z,0.10
2022-08-11T18:20:21.252Z,0.10
2022-08-11T18:23:08.983Z,0.10
2022-08-11T18:25:57.498Z,0.15
2022-08-11T18:28:45.019Z,0.10
2022-08-11T18:31:37.486Z,0.13
2022-08-11T18:34:24.008Z,0.17
2022-08-11T18:37:20.226Z,0.10
2022-08-11T18:40:18.739Z,0.10
2022-08-11T18:43:05.422Z,0.10
2022-08-11T18:45:54.978Z,0.10
2022-08-11T18:48:53.568Z,0.10
2022-08-11T18:51:40.167Z,0.10
2022-08-11T18:54:27.600Z,0.20
2022-08-11T18:57:16.381Z,0.10
2022-08-11T19:00:02.577Z,0.10
2022-08-11T19:02:50.352Z,0.10
2022-08-11T19:06:35.246Z,0.10
2022-08-11T19:08:42.318Z,0.10
2022-08-11T19:11:28.923Z,0.20
2022-08-11T19:14:16.587Z,0.15
2022-08-11T19:17:03.109Z,0.10
2022-08-11T19:19:49.817Z,0.20
2022-08-11T19:22:35.432Z,0.13
2022-08-11T19:25:25.314Z,0.20
2022-08-11T19:28:11.531Z,0.20
2022-08-11T19:30:58.250Z,0.10
2022-08-11T19:34:02.346Z,0.10
2022-08-11T19:36:50.119Z,0.10
2022-08-11T19:39:35.566Z,0.10
2022-08-11T19:42:21.541Z,0.20
2022-08-11T19:45:07.071Z,0.20
2022-08-11T19:48:08.196Z,0.20
2022-08-11T19:50:59.534Z,0.17
2022-08-11T19:53:45.574Z,0.15
2022-08-11T19:56:31.258Z,0.20
2022-08-11T19:59:16.781Z,0.20
2022-08-11T20:02:14.025Z,0.10
2022-08-11T20:05:01.438Z,0.10
2022-08-11T20:07:47.823Z,0.20
2022-08-11T20:10:34.599Z,0.10
2022-08-11T20:13:21.572Z,0.20
2022-08-11T20:16:07.079Z,0.20
2022-08-11T20:18:53.028Z,0.10
2022-08-11T20:21:40.074Z,0.20
2022-08-11T20:24:25.783Z,0.10
2022-08-11T20:27:18.576Z,0.20
2022-08-11T20:30:09.247Z,0.20
2022-08-11T20:32:54.546Z,0.10
2022-08-11T20:35:40.800Z,0.20
2022-08-11T20:38:27.948Z,0.20
2022-08-11T20:41:16.216Z,0.20
2022-08-11T20:44:08.367Z,0.17
2022-08-11T20:46:55.336Z,0.10
2022-08-11T20:49:51.562Z,0.20
2022-08-11T20:52:41.791Z,0.30
2022-08-11T20:55:51.492Z,0.22
2022-08-11T20:58:54.787Z,0.20
2022-08-11T21:01:41.203Z,0.20
2022-08-11T21:04:27.236Z,0.20
2022-08-11T21:07:15.163Z,0.20
2022-08-11T21:10:17.227Z,0.20
2022-08-11T21:13:26.878Z,0.20
2022-08-11T21:16:26.071Z,0.20
2022-08-11T21:19:13.864Z,0.10
2022-08-11T21:21:59.710Z,0.20
2022-08-11T21:24:47.071Z,0.20
2022-08-11T21:27:34.886Z,0.20
2022-08-11T21:30:22.277Z,0.20
2022-08-11T21:33:07.935Z,0.20
2022-08-11T21:35:54.403Z,0.20
2022-08-11T21:38:39.721Z,0.20
2022-08-11T21:41:25.527Z,0.10
2022-08-11T21:44:11.811Z,0.20
2022-08-11T21:46:59.107Z,0.20
2022-08-11T21:49:44.868Z,0.20
2022-08-11T21:52:30.477Z,0.20
2022-08-11T21:55:16.369Z,0.20
2022-08-11T21:58:02.540Z,0.10
2022-08-11T22:00:47.869Z,0.10
2022-08-11T22:03:49.496Z,0.20
2022-08-11T22:06:35.687Z,0.20
2022-08-11T22:09:20.840Z,0.20
2022-08-11T22:12:41.125Z,0.20
2022-08-11T22:15:13.877Z,0.20
2022-08-11T22:17:58.858Z,0.10
2022-08-11T22:20:45.493Z,0.20
2022-08-11T22:23:35.837Z,0.20
2022-08-11T22:26:21.711Z,0.20
2022-08-11T22:29:07.638Z,0.10
2022-08-11T22:31:54.030Z,0.10
2022-08-11T22:34:44.942Z,0.20
2022-08-11T22:37:40.167Z,0.20
2022-08-11T22:40:26.318Z,0.20
2022-08-11T22:43:11.347Z,0.10
2022-08-11T22:45:56.500Z,0.20
2022-08-11T22:48:44.411Z,0.20
2022-08-11T22:51:29.747Z,0.20
2022-08-11T22:54:16.575Z,0.20
2022-08-11T22:57:01.740Z,0.20
2022-08-11T22:59:47.192Z,0.20
2022-08-11T23:02:33.208Z,0.20
2022-08-11T23:05:18.608Z,0.20
2022-08-11T23:08:03.926Z,0.20
2022-08-11T23:10:51.685Z,0.20
2022-08-11T23:13:37.732Z,0.20
2022-08-11T23:16:23.478Z,0.10
2022-08-11T23:19:08.633Z,0.20
2022-08-11T23:21:54.249Z,0.20
2022-08-11T23:24:40.318Z,0.20
2022-08-11T23:27:27.213Z,0.20
2022-08-11T23:30:13.652Z,0.30
2022-08-11T23:33:03.236Z,0.10
2022-08-11T23:35:51.945Z,0.20
2022-08-11T23:38:41.963Z,0.20
2022-08-11T23:41:27.094Z,0.20
2022-08-11T23:44:14.181Z,0.20
2022-08-11T23:46:59.823Z,0.30
2022-08-11T23:49:45.579Z,0.15
2022-08-11T23:52:30.948Z,0.17
2022-08-11T23:55:16.503Z,0.20
2022-08-11T23:58:01.803Z,0.20
